Pagrindinis puslapis
METAR-TAF:

METAR-TAF

Oro uostai :

Čingdao, Kinija

platuma: 36-04N, ilguma: 120-20E, Aukštis: 77 m

Dabartinis oras

Ataskaita buvo paskelbta 42 minutes, ne 00:00 UTC
Vėjas 10 kt iš Šiaurės Rytų
Temperatūra 8°C
Drėgmė 66%
Slėgis 1028 hPa
Matomumas 10 km arba daugiau
nėra debesų žemiau 1500 m ir nėra kamuolinių lietaus debesų

METAR: ZSQD 100000Z 04005MPS CAVOK 08/02 Q1028 NOSIG

Laikas: 08:42 (00:42 UTC)

Prognozė

Ataskaita buvo paskelbta 3 valandos ir 40 minutes, ne 21:02 UTC
Prognozė galioja nuo 10 metu 00 UTC su 10 metu 24 UTC
Vėjas 8 kt iš Šiaurės
Matomumas 10 km arba daugiau
nėra debesų žemiau 1500 m ir nėra kamuolinių lietaus debesų
Tapsmas
nuo 10 metu 06 UTC su 10 metu 07 UTC
Vėjas 10 kt iš Pietų

TAF: ZSQD 092102Z 1000/1024 36004MPS CAVOK TX16/1006Z TN06/1021Z BECMG 1006/1007 18005MPS

Orai ataskaitas ir orų prognozės (METAR, TAF).

turimą stotys yra geltonos ir raudonos taškus žemėlapyje.

Perkelti pele per norėdami pamatyti stoties vardą.

Tada spustelėkite, norėdami matyti oro stebėjimo ir prognozės.

Norėdami pakeisti žemėlapį: spustelėkite ant žalios mygtukų su juodo kryžiaus žemyn,; žalią mygtuką su brūkšneliu, jei norite nutolinti; arba žalių rodyklių gretimoms žemėlapius.


METAR-TAF: